createdAt,value
2016-10-16T00:00:07.129Z,12.29
2016-10-16T00:01:07.174Z,12.30
2016-10-16T00:02:08.000Z,12.34
2016-10-16T00:03:07.793Z,12.27
2016-10-16T00:04:07.613Z,12.21
2016-10-16T00:05:07.391Z,12.18
2016-10-16T00:06:07.234Z,12.16
2016-10-16T00:07:07.024Z,12.11
2016-10-16T00:08:08.094Z,12.20
2016-10-16T00:09:07.813Z,12.30
2016-10-16T00:10:07.543Z,12.28
2016-10-16T00:11:07.250Z,12.22
2016-10-16T00:12:07.301Z,12.14
2016-10-16T00:13:07.072Z,12.05
2016-10-16T00:14:08.087Z,12.06
2016-10-16T00:15:07.844Z,12.07
2016-10-16T00:16:07.720Z,12.05
2016-10-16T00:17:07.582Z,12.10
2016-10-16T00:18:07.590Z,12.09
2016-10-16T00:19:07.310Z,12.09
2016-10-16T00:20:07.250Z,12.09
2016-10-16T00:21:07.918Z,12.11
2016-10-16T00:22:07.589Z,12.14
2016-10-16T00:23:07.355Z,12.17
2016-10-16T00:24:07.153Z,12.14
2016-10-16T00:25:07.099Z,12.13
2016-10-16T00:26:07.881Z,12.14
2016-10-16T00:27:07.655Z,12.17
2016-10-16T00:28:07.488Z,12.21
2016-10-16T00:29:07.231Z,12.29
2016-10-16T00:30:07.031Z,12.25
2016-10-16T00:31:07.420Z,12.27
2016-10-16T00:32:07.258Z,12.31
2016-10-16T00:33:07.126Z,12.33
2016-10-16T00:34:07.936Z,12.32
2016-10-16T00:35:07.695Z,12.34
2016-10-16T00:36:07.420Z,12.30
2016-10-16T00:37:07.183Z,12.26
2016-10-16T00:38:07.058Z,12.26
2016-10-16T00:39:07.892Z,12.30
2016-10-16T00:40:07.554Z,12.29
2016-10-16T00:41:07.335Z,12.29
2016-10-16T00:42:07.240Z,12.29
2016-10-16T00:43:07.215Z,12.34
2016-10-16T00:44:07.936Z,12.36
2016-10-16T00:45:07.716Z,12.40
2016-10-16T00:46:07.472Z,12.42
2016-10-16T00:47:07.377Z,12.45
2016-10-16T00:48:07.345Z,12.44
2016-10-16T00:49:07.079Z,12.45
2016-10-16T00:50:07.982Z,12.47
2016-10-16T00:51:07.588Z,12.47
2016-10-16T00:52:07.406Z,12.40
2016-10-16T00:53:07.310Z,12.45
2016-10-16T00:54:07.029Z,12.44
2016-10-16T00:55:07.947Z,12.48
2016-10-16T00:56:07.710Z,12.52
2016-10-16T00:57:07.647Z,12.52
2016-10-16T00:58:07.505Z,12.52
2016-10-16T00:59:07.476Z,12.56
2016-10-16T01:00:07.266Z,12.58
2016-10-16T01:01:07.700Z,12.56
2016-10-16T01:02:07.350Z,12.50
2016-10-16T01:03:07.313Z,12.44
2016-10-16T01:04:07.167Z,12.43
2016-10-16T01:05:08.019Z,12.45
2016-10-16T01:06:07.084Z,12.45
2016-10-16T01:07:07.968Z,12.48
2016-10-16T01:08:07.564Z,12.49
2016-10-16T01:09:07.487Z,12.48
2016-10-16T01:10:07.354Z,12.51
2016-10-16T01:11:07.057Z,12.51
2016-10-16T01:12:07.957Z,12.51
2016-10-16T01:13:07.678Z,12.52
2016-10-16T01:14:07.445Z,12.54
2016-10-16T01:15:07.382Z,12.54
2016-10-16T01:16:07.175Z,12.60
2016-10-16T01:17:07.181Z,12.55
2016-10-16T01:18:07.707Z,12.56
2016-10-16T01:19:08.018Z,12.59
2016-10-16T01:20:07.586Z,12.58
2016-10-16T01:21:07.472Z,12.57
2016-10-16T01:22:07.228Z,12.55
2016-10-16T01:23:07.139Z,12.50
2016-10-16T01:24:08.056Z,12.52
2016-10-16T01:25:07.891Z,12.52
2016-10-16T01:26:07.502Z,12.50
2016-10-16T01:27:07.316Z,12.50
2016-10-16T01:28:07.308Z,12.52
2016-10-16T01:29:07.161Z,12.52
2016-10-16T01:30:07.921Z,12.55
2016-10-16T01:31:07.709Z,12.56
2016-10-16T01:32:07.594Z,12.54
2016-10-16T01:33:07.349Z,12.59
2016-10-16T01:34:07.102Z,12.55
2016-10-16T01:35:08.014Z,12.58
2016-10-16T01:36:07.655Z,12.59
2016-10-16T01:37:07.412Z,12.60
2016-10-16T01:38:07.286Z,12.55
2016-10-16T01:39:07.245Z,12.53
2016-10-16T01:40:07.273Z,12.50
2016-10-16T01:41:07.072Z,12.47
2016-10-16T01:42:07.084Z,12.47
2016-10-16T01:43:08.015Z,12.48
2016-10-16T01:44:07.739Z,12.49
2016-10-16T01:45:07.392Z,12.50
2016-10-16T01:46:07.250Z,12.48
2016-10-16T01:47:07.148Z,12.47
2016-10-16T01:48:07.162Z,12.48
2016-10-16T01:49:07.999Z,12.48
2016-10-16T01:50:07.669Z,12.47
2016-10-16T01:51:07.448Z,12.49
2016-10-16T01:52:07.326Z,12.48
2016-10-16T01:53:07.168Z,12.43
2016-10-16T01:54:07.042Z,12.44
2016-10-16T01:55:07.833Z,12.48
2016-10-16T01:56:07.503Z,12.50
2016-10-16T01:57:07.470Z,12.49
2016-10-16T01:58:07.314Z,12.47
2016-10-16T01:59:07.242Z,12.35
2016-10-16T02:00:07.180Z,12.37
2016-10-16T02:01:07.131Z,12.35
2016-10-16T02:02:08.011Z,12.38
2016-10-16T02:03:07.753Z,12.38
2016-10-16T02:04:07.355Z,12.37
2016-10-16T02:05:07.238Z,12.36
2016-10-16T02:06:07.166Z,12.37
2016-10-16T02:07:07.033Z,12.37
2016-10-16T02:08:07.941Z,12.35
2016-10-16T02:09:07.623Z,12.33
2016-10-16T02:10:07.641Z,12.37
2016-10-16T02:11:07.322Z,12.43
2016-10-16T02:12:07.124Z,12.43
2016-10-16T02:13:07.880Z,12.52
2016-10-16T02:14:07.480Z,12.54
2016-10-16T02:15:07.459Z,12.50
2016-10-16T02:16:07.285Z,12.51
2016-10-16T02:17:07.202Z,12.50
2016-10-16T02:18:07.232Z,12.51
2016-10-16T02:19:07.070Z,12.50
2016-10-16T02:20:07.133Z,12.48
2016-10-16T02:21:07.809Z,12.47
2016-10-16T02:22:07.500Z,12.49
2016-10-16T02:23:07.280Z,12.54
2016-10-16T02:24:07.197Z,12.51
2016-10-16T02:25:07.128Z,12.50
2016-10-16T02:26:07.792Z,12.49
2016-10-16T02:27:07.522Z,12.49
2016-10-16T02:28:07.304Z,12.48
2016-10-16T02:29:07.072Z,12.43
2016-10-16T02:30:07.851Z,12.41
2016-10-16T02:31:07.719Z,12.41
2016-10-16T02:32:07.482Z,12.40
2016-10-16T02:33:07.220Z,12.43
2016-10-16T02:34:07.209Z,12.38
2016-10-16T02:35:07.141Z,12.40
2016-10-16T02:36:08.081Z,12.46
2016-10-16T02:37:07.783Z,12.44
2016-10-16T02:38:07.571Z,12.43
2016-10-16T02:39:07.395Z,12.40
2016-10-16T02:40:07.383Z,12.37
2016-10-16T02:41:07.055Z,12.36
2016-10-16T02:42:07.815Z,12.34
2016-10-16T02:43:07.533Z,12.32
2016-10-16T02:44:07.457Z,12.31
2016-10-16T02:45:07.370Z,12.33
2016-10-16T02:46:07.219Z,12.36
2016-10-16T02:47:07.037Z,12.39
2016-10-16T02:48:08.009Z,12.38
2016-10-16T02:49:07.604Z,12.40
2016-10-16T02:50:07.495Z,12.40
2016-10-16T02:51:07.330Z,12.40
2016-10-16T02:52:07.174Z,12.39
2016-10-16T02:53:07.956Z,12.34
2016-10-16T02:54:07.625Z,12.36
2016-10-16T02:55:07.510Z,12.32
2016-10-16T02:56:07.208Z,12.27
2016-10-16T02:57:07.058Z,12.32
2016-10-16T02:58:07.895Z,12.32
2016-10-16T02:59:07.829Z,12.29
2016-10-16T03:00:07.522Z,12.27
2016-10-16T03:01:07.406Z,12.29
2016-10-16T03:02:07.344Z,12.30
2016-10-16T03:03:07.196Z,12.33
2016-10-16T03:04:07.061Z,12.37
2016-10-16T03:05:08.062Z,12.36
2016-10-16T03:06:07.784Z,12.41
2016-10-16T03:07:07.606Z,12.34
2016-10-16T03:08:07.373Z,12.29
2016-10-16T03:09:07.252Z,12.29
2016-10-16T03:10:07.231Z,12.26
2016-10-16T03:11:07.955Z,12.26
2016-10-16T03:12:07.842Z,12.29
2016-10-16T03:13:07.676Z,12.27
2016-10-16T03:14:07.542Z,12.24
2016-10-16T03:15:07.290Z,12.21
2016-10-16T03:16:07.167Z,12.26
2016-10-16T03:17:07.254Z,12.24
2016-10-16T03:18:07.255Z,12.20
2016-10-16T03:19:08.017Z,12.20
2016-10-16T03:20:07.841Z,12.19
2016-10-16T03:21:07.485Z,12.16
2016-10-16T03:22:07.282Z,12.11
2016-10-16T03:23:07.198Z,12.14
2016-10-16T03:24:07.944Z,12.13
2016-10-16T03:25:07.812Z,12.08
2016-10-16T03:26:07.580Z,12.04
2016-10-16T03:27:07.334Z,12.07
2016-10-16T03:28:07.203Z,12.05
2016-10-16T03:29:07.212Z,12.09
2016-10-16T03:30:07.175Z,12.04
2016-10-16T03:31:07.069Z,12.02
2016-10-16T03:32:08.024Z,11.97
2016-10-16T03:33:07.816Z,11.95
2016-10-16T03:34:07.425Z,11.94
2016-10-16T03:35:07.261Z,11.90
2016-10-16T03:36:07.025Z,11.87
2016-10-16T03:37:07.869Z,11.86
2016-10-16T03:38:07.723Z,11.86
2016-10-16T03:39:07.474Z,11.81
2016-10-16T03:40:12.792Z,11.79
2016-10-16T03:41:07.141Z,11.71
2016-10-16T03:42:07.088Z,11.64
2016-10-16T03:43:07.048Z,11.63
2016-10-16T03:44:07.963Z,11.62
2016-10-16T03:45:07.786Z,11.63
2016-10-16T03:46:07.459Z,11.65
2016-10-16T03:47:07.374Z,11.59
2016-10-16T03:48:07.238Z,11.54
2016-10-16T03:49:07.029Z,11.54
2016-10-16T03:50:08.049Z,11.53
2016-10-16T03:51:07.737Z,11.49
2016-10-16T03:52:07.519Z,11.38
2016-10-16T03:53:07.375Z,11.35
2016-10-16T03:54:07.300Z,11.33
2016-10-16T03:55:07.004Z,11.34
2016-10-16T03:56:07.957Z,11.29
2016-10-16T03:57:07.667Z,11.27
2016-10-16T03:58:07.349Z,11.27
2016-10-16T03:59:07.224Z,11.27
2016-10-16T04:00:08.012Z,11.24
2016-10-16T04:01:07.738Z,11.22
2016-10-16T04:02:07.614Z,11.20
2016-10-16T04:03:07.606Z,11.15
2016-10-16T04:04:07.373Z,11.16
2016-10-16T04:05:07.244Z,11.20
2016-10-16T04:06:07.956Z,11.30
2016-10-16T04:07:07.890Z,11.39
2016-10-16T04:08:07.629Z,11.39
2016-10-16T04:09:07.436Z,11.29
2016-10-16T04:10:07.294Z,11.16
2016-10-16T04:11:07.070Z,11.17
2016-10-16T04:12:07.924Z,11.11
2016-10-16T04:13:07.660Z,11.03
2016-10-16T04:14:07.497Z,10.96
2016-10-16T04:15:07.402Z,10.88
2016-10-16T04:16:07.167Z,10.92
2016-10-16T04:17:07.227Z,10.98
2016-10-16T04:18:07.249Z,10.97
2016-10-16T04:19:07.127Z,10.87
2016-10-16T04:20:08.130Z,10.87
2016-10-16T04:21:07.854Z,10.83
2016-10-16T04:22:07.611Z,10.84
2016-10-16T04:23:07.399Z,10.86
2016-10-16T04:24:07.198Z,10.86
2016-10-16T04:25:09.588Z,10.84
2016-10-16T04:26:07.702Z,10.94
2016-10-16T04:27:07.536Z,10.94
2016-10-16T04:28:07.388Z,11.03
2016-10-16T04:29:07.083Z,10.94
2016-10-16T04:30:07.929Z,10.82
2016-10-16T04:31:07.745Z,10.71
2016-10-16T04:32:07.486Z,10.65
2016-10-16T04:33:07.433Z,10.66
2016-10-16T04:34:07.082Z,10.61
2016-10-16T04:35:07.247Z,10.65
2016-10-16T04:36:07.905Z,10.74
2016-10-16T04:37:07.705Z,10.77
2016-10-16T04:38:07.578Z,10.78
2016-10-16T04:39:07.306Z,10.77
2016-10-16T04:40:07.160Z,10.78
2016-10-16T04:41:07.125Z,10.68
2016-10-16T04:42:07.938Z,10.59
2016-10-16T04:43:07.509Z,10.52
2016-10-16T04:44:07.450Z,10.49
2016-10-16T04:45:07.246Z,10.50
2016-10-16T04:46:07.143Z,10.44
2016-10-16T04:47:08.593Z,10.42
2016-10-16T04:48:07.208Z,10.41
2016-10-16T04:49:08.048Z,10.43
2016-10-16T04:50:07.866Z,10.39
2016-10-16T04:51:07.717Z,10.42
2016-10-16T04:52:07.468Z,10.42
2016-10-16T04:53:07.320Z,10.44
2016-10-16T04:54:07.257Z,10.45
2016-10-16T04:55:07.131Z,10.41
2016-10-16T04:56:07.965Z,10.40
2016-10-16T04:57:07.899Z,10.41
2016-10-16T04:58:07.676Z,10.37
2016-10-16T04:59:07.471Z,10.35
2016-10-16T05:00:07.186Z,10.41
2016-10-16T05:01:07.197Z,10.44
2016-10-16T05:02:07.041Z,10.44
2016-10-16T05:03:08.059Z,10.43
2016-10-16T05:04:07.905Z,10.25
2016-10-16T05:05:07.631Z,10.24
2016-10-16T05:06:07.515Z,10.24
2016-10-16T05:07:07.233Z,10.23
2016-10-16T05:08:07.171Z,10.25
2016-10-16T05:09:07.054Z,10.33
2016-10-16T05:10:07.062Z,10.24
2016-10-16T05:11:08.030Z,10.19
2016-10-16T05:12:07.767Z,10.20
2016-10-16T05:13:07.624Z,10.19
2016-10-16T05:14:07.457Z,10.15
2016-10-16T05:15:07.339Z,10.16
2016-10-16T05:16:07.434Z,10.11
2016-10-16T05:17:07.432Z,10.11
2016-10-16T05:18:07.621Z,10.11
2016-10-16T05:19:07.176Z,10.08
2016-10-16T05:20:07.017Z,10.04
2016-10-16T05:21:08.048Z,10.03
2016-10-16T05:22:07.807Z,10.05
2016-10-16T05:23:07.643Z,10.06
2016-10-16T05:24:07.582Z,10.04
2016-10-16T05:25:07.401Z,10.07
2016-10-16T05:26:07.345Z,10.06
2016-10-16T05:27:07.212Z,10.10
2016-10-16T05:28:07.090Z,10.12
2016-10-16T05:29:08.037Z,10.13
2016-10-16T05:30:07.756Z,10.12
2016-10-16T05:31:07.620Z,10.15
2016-10-16T05:32:07.398Z,10.12
2016-10-16T05:33:07.223Z,10.08
2016-10-16T05:34:07.220Z,10.09
2016-10-16T05:35:07.116Z,10.14
2016-10-16T05:36:07.044Z,10.16
2016-10-16T05:37:07.953Z,10.18
2016-10-16T05:38:07.797Z,10.13
2016-10-16T05:39:07.717Z,10.20
2016-10-16T05:40:07.631Z,10.25
2016-10-16T05:41:07.631Z,10.27
2016-10-16T05:42:07.531Z,10.22
2016-10-16T05:43:07.371Z,10.17
2016-10-16T05:44:07.251Z,10.16
2016-10-16T05:45:07.162Z,10.25
2016-10-16T05:46:07.991Z,10.31
2016-10-16T05:47:07.910Z,10.17
2016-10-16T05:48:07.708Z,10.15
2016-10-16T05:49:07.584Z,10.14
2016-10-16T05:50:07.442Z,10.09
2016-10-16T05:51:07.534Z,10.11
2016-10-16T05:52:07.437Z,10.07
2016-10-16T05:53:07.291Z,10.03
2016-10-16T05:54:07.060Z,10.00
2016-10-16T05:55:07.994Z,10.04
2016-10-16T05:56:07.822Z,10.09
2016-10-16T05:57:07.710Z,10.07
2016-10-16T05:58:07.507Z,10.10
2016-10-16T05:59:07.417Z,10.16
2016-10-16T06:00:07.305Z,10.16
2016-10-16T06:01:07.308Z,10.06
2016-10-16T06:02:07.185Z,10.07
2016-10-16T06:03:07.096Z,10.08
2016-10-16T06:04:08.062Z,10.11
2016-10-16T06:05:08.013Z,10.11
2016-10-16T06:06:07.603Z,10.12
2016-10-16T06:07:07.361Z,10.15
2016-10-16T06:08:07.261Z,10.10
2016-10-16T06:09:07.162Z,10.10
2016-10-16T06:10:07.075Z,10.14
2016-10-16T06:11:07.958Z,10.18
2016-10-16T06:12:07.785Z,10.22
2016-10-16T06:13:07.522Z,10.17
2016-10-16T06:14:07.910Z,10.14
2016-10-16T06:15:07.383Z,10.20
2016-10-16T06:16:07.413Z,10.20
2016-10-16T06:17:07.270Z,10.22
2016-10-16T06:18:07.832Z,10.17
2016-10-16T06:19:07.183Z,10.19
2016-10-16T06:20:07.245Z,10.22
2016-10-16T06:21:08.035Z,10.18
2016-10-16T06:22:07.798Z,10.20
2016-10-16T06:23:07.659Z,10.15
2016-10-16T06:24:07.669Z,10.13
2016-10-16T06:25:07.532Z,10.09
2016-10-16T06:26:07.519Z,10.09
2016-10-16T06:27:07.349Z,10.16
2016-10-16T06:28:07.270Z,10.21
2016-10-16T06:29:07.165Z,10.22
2016-10-16T06:30:07.105Z,10.25
2016-10-16T06:31:07.119Z,10.24
2016-10-16T06:32:08.054Z,10.25
2016-10-16T06:33:07.809Z,10.26
2016-10-16T06:34:07.582Z,10.32
2016-10-16T06:35:07.564Z,10.33
2016-10-16T06:36:07.412Z,10.39
2016-10-16T06:37:07.234Z,10.36
2016-10-16T06:38:07.237Z,10.37
2016-10-16T06:39:07.280Z,10.43
2016-10-16T06:40:08.003Z,10.36
2016-10-16T06:41:07.863Z,10.33
2016-10-16T06:42:07.706Z,10.32
2016-10-16T06:43:07.553Z,10.32
2016-10-16T06:44:07.407Z,10.33
2016-10-16T06:45:07.507Z,10.34
2016-10-16T06:46:07.526Z,10.40
2016-10-16T06:47:07.217Z,10.43
2016-10-16T06:48:07.203Z,10.45
2016-10-16T06:49:07.051Z,10.49
2016-10-16T06:50:07.183Z,10.46
2016-10-16T06:51:07.131Z,10.48
2016-10-16T06:52:08.043Z,10.52
2016-10-16T06:53:07.877Z,10.54
2016-10-16T06:54:07.605Z,10.58
2016-10-16T06:55:07.623Z,10.62
2016-10-16T06:56:07.445Z,10.58
2016-10-16T06:57:07.235Z,10.62
2016-10-16T06:58:08.047Z,10.64
2016-10-16T06:59:07.837Z,10.69
2016-10-16T07:00:07.655Z,10.70
2016-10-16T07:01:07.637Z,10.69
2016-10-16T07:02:07.473Z,10.70
2016-10-16T07:03:07.525Z,10.78
2016-10-16T07:04:07.259Z,10.78
2016-10-16T07:05:07.024Z,10.78
2016-10-16T07:06:07.916Z,10.81
2016-10-16T07:07:07.812Z,10.92
2016-10-16T07:08:07.714Z,10.95
2016-10-16T07:09:07.565Z,10.90
2016-10-16T07:10:07.445Z,10.92
2016-10-16T07:11:07.333Z,10.92
2016-10-16T07:12:07.268Z,10.95
2016-10-16T07:13:07.236Z,11.05
2016-10-16T07:14:07.999Z,11.04
2016-10-16T07:15:08.751Z,11.09
2016-10-16T07:16:07.805Z,11.22
2016-10-16T07:17:07.801Z,11.25
2016-10-16T07:18:08.765Z,11.25
2016-10-16T07:19:07.586Z,11.27
2016-10-16T07:20:07.562Z,11.22
2016-10-16T07:21:07.357Z,11.18
2016-10-16T07:22:07.232Z,11.16
2016-10-16T07:23:07.264Z,11.25
2016-10-16T07:24:07.265Z,11.31
2016-10-16T07:25:07.162Z,11.28
2016-10-16T07:26:07.256Z,11.40
2016-10-16T07:27:07.206Z,11.38
2016-10-16T07:28:07.114Z,11.55
2016-10-16T07:29:07.023Z,11.50
2016-10-16T07:30:08.086Z,11.50
2016-10-16T07:31:07.952Z,11.52
2016-10-16T07:32:07.652Z,11.63
2016-10-16T07:33:07.685Z,11.68
2016-10-16T07:34:07.680Z,11.63
2016-10-16T07:35:07.554Z,11.64
2016-10-16T07:36:07.349Z,11.78
2016-10-16T07:37:07.276Z,11.85
2016-10-16T07:38:07.189Z,11.84
2016-10-16T07:39:07.173Z,11.80
2016-10-16T07:40:07.154Z,11.77
2016-10-16T07:41:07.224Z,11.82
2016-10-16T07:42:07.031Z,11.88
2016-10-16T07:43:08.051Z,11.86
2016-10-16T07:44:08.014Z,11.94
2016-10-16T07:45:07.846Z,12.01
2016-10-16T07:46:07.672Z,12.03
2016-10-16T07:47:07.542Z,12.01
2016-10-16T07:48:07.413Z,12.01
2016-10-16T07:49:07.273Z,12.08
2016-10-16T07:50:07.464Z,12.09
2016-10-16T07:51:07.316Z,12.16
2016-10-16T07:52:08.750Z,12.14
2016-10-16T07:53:07.234Z,12.17
2016-10-16T07:54:07.121Z,12.14
2016-10-16T07:55:07.213Z,12.16
2016-10-16T07:56:07.315Z,12.13
2016-10-16T07:57:07.195Z,12.21
2016-10-16T07:58:08.279Z,12.34
2016-10-16T07:59:07.212Z,12.35
2016-10-16T08:00:07.225Z,12.40
2016-10-16T08:01:07.219Z,12.45
2016-10-16T08:02:07.220Z,12.48
2016-10-16T08:03:07.297Z,12.47
2016-10-16T08:04:07.198Z,12.55
2016-10-16T08:05:07.149Z,12.52
2016-10-16T08:06:08.021Z,12.59
2016-10-16T08:07:07.897Z,12.61
2016-10-16T08:08:07.700Z,12.60
2016-10-16T08:09:07.456Z,12.68
2016-10-16T08:10:07.550Z,12.67
2016-10-16T08:11:08.707Z,12.62
2016-10-16T08:12:07.384Z,12.60
2016-10-16T08:13:07.291Z,12.66
2016-10-16T08:14:07.197Z,12.73
2016-10-16T08:15:07.151Z,12.73
2016-10-16T08:16:07.081Z,12.76
2016-10-16T08:17:08.058Z,12.81
2016-10-16T08:18:07.128Z,12.85
2016-10-16T08:19:07.155Z,12.86
2016-10-16T08:20:07.213Z,12.89
2016-10-16T08:21:07.258Z,12.96
2016-10-16T08:22:07.201Z,13.00
2016-10-16T08:23:07.362Z,13.01
2016-10-16T08:24:07.262Z,13.00
2016-10-16T08:25:07.201Z,13.03
2016-10-16T08:26:08.194Z,13.03
2016-10-16T08:27:07.213Z,13.04
2016-10-16T08:28:07.333Z,13.11
2016-10-16T08:29:07.197Z,13.22
2016-10-16T08:30:07.286Z,13.26
2016-10-16T08:31:08.355Z,13.32
2016-10-16T08:32:07.187Z,13.32
2016-10-16T08:33:07.205Z,13.34
2016-10-16T08:34:07.099Z,13.38
2016-10-16T08:35:07.176Z,13.43
2016-10-16T08:36:08.118Z,13.46
2016-10-16T08:37:07.167Z,13.46
2016-10-16T08:38:07.181Z,13.48
2016-10-16T08:39:07.121Z,13.51
2016-10-16T08:40:07.093Z,13.58
2016-10-16T08:41:07.979Z,13.62
2016-10-16T08:42:07.989Z,13.68
2016-10-16T08:43:07.952Z,13.68
2016-10-16T08:44:07.845Z,13.70
2016-10-16T08:45:07.747Z,13.73
2016-10-16T08:46:07.710Z,13.80
2016-10-16T08:47:07.632Z,13.80
2016-10-16T08:48:07.488Z,13.79
2016-10-16T08:49:07.376Z,13.84
2016-10-16T08:50:07.263Z,13.84
2016-10-16T08:51:07.119Z,13.93
2016-10-16T08:52:07.402Z,13.90
2016-10-16T08:53:07.372Z,13.91
2016-10-16T08:54:07.304Z,13.93
2016-10-16T08:55:07.373Z,14.01
2016-10-16T08:56:08.364Z,14.05
2016-10-16T08:57:07.374Z,14.05
2016-10-16T08:58:07.411Z,14.09
2016-10-16T08:59:07.273Z,14.05
2016-10-16T09:00:07.313Z,14.15
2016-10-16T09:01:07.263Z,14.25
2016-10-16T09:02:07.185Z,14.22
2016-10-16T09:03:07.276Z,14.24
2016-10-16T09:04:07.349Z,14.25
2016-10-16T09:05:07.330Z,14.27
2016-10-16T09:06:07.396Z,14.25
2016-10-16T09:07:07.414Z,14.28
2016-10-16T09:08:07.265Z,14.20
2016-10-16T09:09:07.147Z,14.29
2016-10-16T09:10:07.151Z,14.32
2016-10-16T09:11:07.238Z,14.28
2016-10-16T09:12:07.345Z,14.37
2016-10-16T09:13:07.413Z,14.42
2016-10-16T09:14:07.367Z,14.44
2016-10-16T09:15:07.370Z,14.47
2016-10-16T09:16:07.220Z,14.60
2016-10-16T09:17:07.314Z,14.68
2016-10-16T09:18:07.591Z,14.69
2016-10-16T09:19:07.513Z,14.68
2016-10-16T09:20:07.400Z,14.67
2016-10-16T09:21:07.301Z,14.68
2016-10-16T09:22:07.274Z,14.66
2016-10-16T09:23:07.210Z,14.67
2016-10-16T09:24:07.379Z,14.74
2016-10-16T09:25:07.429Z,14.70
2016-10-16T09:26:07.441Z,14.75
2016-10-16T09:27:07.396Z,14.72
2016-10-16T09:28:07.304Z,14.69
2016-10-16T09:29:07.443Z,14.75
2016-10-16T09:30:07.396Z,14.78
2016-10-16T09:31:07.426Z,14.81
2016-10-16T09:32:07.296Z,14.85
2016-10-16T09:33:07.352Z,14.79
2016-10-16T09:34:07.402Z,14.89
2016-10-16T09:35:07.352Z,14.95
2016-10-16T09:36:07.434Z,14.92
2016-10-16T09:37:07.482Z,14.95
2016-10-16T09:38:07.441Z,14.96
2016-10-16T09:39:07.481Z,15.00
2016-10-16T09:40:07.341Z,15.07
2016-10-16T09:41:07.166Z,15.10
2016-10-16T09:42:07.140Z,15.07
2016-10-16T09:43:07.102Z,15.11
2016-10-16T09:44:07.949Z,15.11
2016-10-16T09:45:07.797Z,15.05
2016-10-16T09:46:07.777Z,15.12
2016-10-16T09:47:07.704Z,15.13
2016-10-16T09:48:07.533Z,15.18
2016-10-16T09:49:07.473Z,15.23
2016-10-16T09:50:07.424Z,15.24
2016-10-16T09:51:07.341Z,15.31
2016-10-16T09:52:07.375Z,15.33
2016-10-16T09:53:07.383Z,15.30
2016-10-16T09:54:07.464Z,15.27
2016-10-16T09:55:07.334Z,15.20
2016-10-16T09:56:07.357Z,15.19
2016-10-16T09:57:07.416Z,15.20
2016-10-16T09:58:07.241Z,15.25
2016-10-16T09:59:07.314Z,15.34
2016-10-16T10:00:07.363Z,15.49
2016-10-16T10:01:07.442Z,15.47
2016-10-16T10:02:07.406Z,15.48
2016-10-16T10:03:07.453Z,15.48
2016-10-16T10:04:07.607Z,15.54
2016-10-16T10:05:07.395Z,15.59
2016-10-16T10:06:07.397Z,15.57
2016-10-16T10:07:07.378Z,15.48
2016-10-16T10:08:07.337Z,15.59
2016-10-16T10:09:07.421Z,15.60
2016-10-16T10:10:07.258Z,15.60
2016-10-16T10:11:07.244Z,15.65
2016-10-16T10:12:07.346Z,15.70
2016-10-16T10:13:07.474Z,15.74
2016-10-16T10:14:07.433Z,15.77
2016-10-16T10:15:07.375Z,15.78
2016-10-16T10:16:07.495Z,15.85
2016-10-16T10:17:07.697Z,15.81
2016-10-16T10:18:07.705Z,15.86
2016-10-16T10:19:07.752Z,15.88
2016-10-16T10:20:07.802Z,15.93
2016-10-16T10:21:07.762Z,15.98
2016-10-16T10:22:07.625Z,15.91
2016-10-16T10:23:07.544Z,15.92
2016-10-16T10:24:07.692Z,15.92
2016-10-16T10:25:07.487Z,15.88
2016-10-16T10:26:07.474Z,15.89
2016-10-16T10:27:07.467Z,15.90
2016-10-16T10:28:07.464Z,15.92
2016-10-16T10:29:07.564Z,15.94
2016-10-16T10:30:07.665Z,16.00
2016-10-16T10:31:07.788Z,15.97
2016-10-16T10:32:07.781Z,16.17
2016-10-16T10:33:07.685Z,16.19
2016-10-16T10:34:07.756Z,16.29
2016-10-16T10:35:07.762Z,16.26
2016-10-16T10:36:07.789Z,16.22
2016-10-16T10:37:07.681Z,16.23
2016-10-16T10:38:07.653Z,16.21
2016-10-16T10:39:07.683Z,16.30
2016-10-16T10:40:07.573Z,16.39
2016-10-16T10:41:07.582Z,16.48
2016-10-16T10:42:07.672Z,16.47
2016-10-16T10:43:07.596Z,16.51
2016-10-16T10:44:07.789Z,16.47
2016-10-16T10:45:07.786Z,16.45
2016-10-16T10:46:07.651Z,16.48
2016-10-16T10:47:07.545Z,16.46
2016-10-16T10:48:07.441Z,16.53
2016-10-16T10:49:07.561Z,16.64
2016-10-16T10:50:07.583Z,16.61
2016-10-16T10:51:07.508Z,16.56
2016-10-16T10:52:07.512Z,16.65
2016-10-16T10:53:07.444Z,16.67
2016-10-16T10:54:07.473Z,16.69
2016-10-16T10:55:07.606Z,16.75
2016-10-16T10:56:07.453Z,16.86
2016-10-16T10:57:07.425Z,16.82
2016-10-16T10:58:07.510Z,16.81
2016-10-16T10:59:07.591Z,16.83
2016-10-16T11:00:07.493Z,16.79
2016-10-16T11:01:07.705Z,16.83
2016-10-16T11:02:07.681Z,16.87
2016-10-16T11:03:07.644Z,16.91
2016-10-16T11:04:07.630Z,16.89
2016-10-16T11:05:07.582Z,16.93
2016-10-16T11:06:07.514Z,16.85
2016-10-16T11:07:07.496Z,16.83
2016-10-16T11:08:07.524Z,16.84
2016-10-16T11:09:07.554Z,16.89
2016-10-16T11:10:07.485Z,16.83
2016-10-16T11:11:07.501Z,16.84
2016-10-16T11:12:07.511Z,16.86
2016-10-16T11:13:07.533Z,16.97
2016-10-16T11:14:07.540Z,17.10
2016-10-16T11:15:07.499Z,17.15
2016-10-16T11:16:07.460Z,17.13
2016-10-16T11:17:07.632Z,17.21
2016-10-16T11:18:07.855Z,17.21
2016-10-16T11:19:07.738Z,17.24
2016-10-16T11:20:07.662Z,17.28
2016-10-16T11:21:07.612Z,17.27
2016-10-16T11:22:07.646Z,17.25
2016-10-16T11:23:07.655Z,17.35
2016-10-16T11:24:07.652Z,17.45
2016-10-16T11:25:07.451Z,17.52
2016-10-16T11:26:07.455Z,17.54
2016-10-16T11:27:07.445Z,17.45
2016-10-16T11:28:07.518Z,17.39
2016-10-16T11:29:07.439Z,17.37
2016-10-16T11:30:07.497Z,17.34
2016-10-16T11:31:07.472Z,17.39
2016-10-16T11:32:07.465Z,17.40
2016-10-16T11:33:07.510Z,17.39
2016-10-16T11:34:07.452Z,17.45
2016-10-16T11:35:07.612Z,17.48
2016-10-16T11:36:07.533Z,17.47
2016-10-16T11:37:07.491Z,17.41
2016-10-16T11:38:07.386Z,17.45
2016-10-16T11:39:07.392Z,17.51
2016-10-16T11:40:07.516Z,17.44
2016-10-16T11:41:07.477Z,17.46
2016-10-16T11:42:07.487Z,17.51
2016-10-16T11:43:07.558Z,17.54
2016-10-16T11:44:07.577Z,17.57
2016-10-16T11:45:07.687Z,17.56
2016-10-16T11:46:07.716Z,17.50
2016-10-16T11:47:07.572Z,17.47
2016-10-16T11:48:07.534Z,17.49
2016-10-16T11:49:07.536Z,17.52
2016-10-16T11:50:07.906Z,17.48
2016-10-16T11:51:07.563Z,17.44
2016-10-16T11:52:07.570Z,17.41
2016-10-16T11:53:07.555Z,17.39
2016-10-16T11:54:07.533Z,17.40
2016-10-16T11:55:07.683Z,17.41
2016-10-16T11:56:07.644Z,17.50
2016-10-16T11:57:07.567Z,17.53
2016-10-16T11:58:07.547Z,17.54
2016-10-16T11:59:07.541Z,17.51
2016-10-16T12:00:07.567Z,17.58
2016-10-16T12:01:07.675Z,17.59
2016-10-16T12:02:07.724Z,17.56
2016-10-16T12:03:07.637Z,17.50
2016-10-16T12:04:07.824Z,17.48
2016-10-16T12:05:07.923Z,17.53
2016-10-16T12:06:07.934Z,17.54
2016-10-16T12:07:07.845Z,17.55
2016-10-16T12:08:07.863Z,17.56
2016-10-16T12:09:07.923Z,17.61
2016-10-16T12:10:07.973Z,17.57
2016-10-16T12:11:07.854Z,17.55
2016-10-16T12:12:07.888Z,17.60
2016-10-16T12:13:07.996Z,17.63
2016-10-16T12:14:07.928Z,17.61
2016-10-16T12:15:07.965Z,17.58
2016-10-16T12:16:07.896Z,17.66
2016-10-16T12:17:07.947Z,17.65
2016-10-16T12:18:07.048Z,17.61
2016-10-16T12:19:07.145Z,17.63
2016-10-16T12:20:07.371Z,17.66
2016-10-16T12:21:07.377Z,17.65
2016-10-16T12:22:07.412Z,17.65
2016-10-16T12:23:07.567Z,17.70
2016-10-16T12:24:07.549Z,17.70
2016-10-16T12:25:07.571Z,17.74
2016-10-16T12:26:07.530Z,17.74
2016-10-16T12:27:07.491Z,17.75
2016-10-16T12:28:07.555Z,17.74
2016-10-16T12:29:07.682Z,17.77
2016-10-16T12:30:07.752Z,17.79
2016-10-16T12:31:07.829Z,17.79
2016-10-16T12:32:07.935Z,17.85
2016-10-16T12:33:07.789Z,17.85
2016-10-16T12:34:07.669Z,17.85
2016-10-16T12:35:07.623Z,17.84
2016-10-16T12:36:07.630Z,17.81
2016-10-16T12:37:07.513Z,17.86
2016-10-16T12:38:07.671Z,17.99
2016-10-16T12:39:07.605Z,18.00
2016-10-16T12:40:07.563Z,17.95
2016-10-16T12:41:07.686Z,17.95
2016-10-16T12:42:07.696Z,17.99
2016-10-16T12:43:08.699Z,18.00
2016-10-16T12:44:07.696Z,17.96
2016-10-16T12:45:07.715Z,17.96
2016-10-16T12:46:07.931Z,17.98
2016-10-16T12:47:07.812Z,18.00
2016-10-16T12:48:07.819Z,18.01
2016-10-16T12:49:07.750Z,18.03
2016-10-16T12:50:07.931Z,18.12
2016-10-16T12:51:07.959Z,18.12
2016-10-16T12:52:07.792Z,18.15